Terminal Aerodrome Forecast
Issued by NWS

Home | Current Version | Previous Version | Text Only | Print | Product List | Glossary On
Versions: 1 2 3 4 5 6 7 8 9 10 11 12 13 14 15 16 17 18 19 20 21 22 23 24 25 26
000
FTUS43 KILX 292338
TAFBMI
TAF
KBMI 292338Z 3000/3024 12006KT P6SM VCTS BKN035CB
     FM300100 VRB03KT P6SM SCT250
     FM300900 VRB03KT 5SM BR SCT250
     FM301400 12006KT P6SM VCSH SCT015 BKN080
     FM301800 16005KT P6SM VCTS SCT030CB BKN250=

USA.gov is the U.S. government's official web portal to all federal, state and local government web resources and services.